< Typhoon 200501 2005 Season Typhoon 200503 >
Typhoon 200502 (ROKE)
General InformationTrack Information on Google MapsDetailed Wind InformationAccess Analytics MapList of All Images || NewsDisaster Info.WeblogTrackbackTyphoon FrontResourceGoogle EarthGE AnimationAtom FeedGeoJSON
Detalied Best Track (Time Zone = UTC)
Year Month Day Hour Lat. Long. Pressure (hPa) Wind (kt) Class Image Chart
2005 3 12 00 6.0 151.4 1008 0 2 Image Chart
2005 3 12 06 6.3 150.9 1006 0 2 Image Chart
2005 3 12 12 6.7 150.2 1008 0 2 Image Chart
2005 3 12 18 7.0 149.5 1006 0 2 Image Chart
2005 3 13 00 7.3 148.5 1008 0 2 Image Chart
2005 3 13 06 7.9 147.1 1004 0 2 Image Chart
2005 3 13 12 8.4 145.5 1002 0 2 Image Chart
2005 3 13 18 9.3 143.7 1000 0 2 Image Chart
2005 3 14 00 9.9 142.5 1000 0 2 Image Chart
2005 3 14 06 10.4 141.2 1000 0 2 Image Chart
2005 3 14 12 10.6 140.0 1000 0 2 Image Chart
2005 3 14 18 10.9 138.7 1000 0 2 Image Chart
2005 3 15 00 11.5 137.5 996 35 3 Image Chart
2005 3 15 06 12.1 136.0 992 40 3 Image Chart
2005 3 15 12 12.3 134.5 990 40 3 Image Chart
2005 3 15 18 12.2 132.9 985 45 3 Image Chart
2005 3 16 00 11.8 131.1 985 50 4 Image Chart
2005 3 16 06 11.7 128.9 980 55 4 Image Chart
2005 3 16 12 11.6 126.6 980 55 4 Image Chart
2005 3 16 18 11.0 124.7 990 45 3 Image Chart
2005 3 17 00 11.0 122.8 992 40 3 Image Chart
2005 3 17 06 11.6 121.1 996 35 3 Image Chart
2005 3 17 12 11.6 120.0 1000 0 2 Image Chart
2005 3 17 18 11.8 118.7 1004 0 2 Image Chart
2005 3 18 00 11.9 117.0 1008 0 2 Image Chart
2005 3 18 06 11.9 115.9 1008 0 2 Image Chart
2005 3 18 12 11.6 114.6 1008 0 2 Image Chart
2005 3 18 18 11.4 113.4 1008 0 2 Image Chart
2005 3 19 00 10.9 112.0 1008 0 2 Image Chart
2005 3 19 06 10.5 110.5 1008 0 2 Image Chart
Japan Meteorological Agency Best Track Data | Correction Date : 2005-12-19
< Typhoon 200501 2005 Season Typhoon 200503 >

Help